Stations météo

réclame
Mon MeteoGroup
Gladhammar, Suède (2559): Température de l'air & dewpoint: 15.08.2018 06:00:00 - 21.08.2018 06:00:00 (CEST)Gladhammar, Suède (2559): Vitesse du vent & gusts: 15.08.2018 06:00:00 - 21.08.2018 06:00:00 (CEST)Gladhammar, Suède (2559): Direction du vent: 15.08.2018 06:00:00 - 21.08.2018 06:00:00 (CEST)Gladhammar, Suède (2559): visibility: 15.08.2018 06:00:00 - 21.08.2018 06:00:00 (CEST)Gladhammar, Suède (2559): Quantités de précipitations: 15.08.2018 06:00:00 - 21.08.2018 06:00:00 (CEST)
Date & Time tt [°C] td [°C] ff [km/h] ff [knt] fx [km/h] fx [knt] dd vv [km] rr [mm]
21.08.2018 06:00:00 - - - - - - - - -
21.08.2018 05:00:00 10,0 9,4 3 1 9 5 WNW 50 0,0
21.08.2018 04:00:00 10,6 10,0 4 2 14 7 WNW 50 0,0
21.08.2018 03:00:00 11,2 10,3 5 3 15 8 WNW 50 0,0
21.08.2018 02:00:00 11,7 10,3 7 4 19 10 WNW 50 0,0
21.08.2018 01:00:00 11,7 10,1 6 4 16 9 WNW 50 0,0
21.08.2018 00:00:00 12,1 10,2 6 4 13 7 W 50 0,0
20.08.2018 23:00:00 13,7 9,9 8 4 19 11 WNW 50 0,0
20.08.2018 22:00:00 14,3 11,3 9 5 18 10 W 50 0,0
20.08.2018 21:00:00 13,9 12,9 3 2 9 5 WNW 39 0,0
20.08.2018 20:00:00 15,8 13,3 5 3 20 11 WNW 50 0,0
20.08.2018 19:00:00 17,2 14,5 9 5 21 11 W 50 0,0
20.08.2018 18:00:00 16,5 15,2 6 4 13 7 W 48 0,0
20.08.2018 17:00:00 16,8 15,8 6 3 - - W 50 0,9
20.08.2018 16:00:00 18,4 16,4 5 3 19 10 NNW 23 0,0
20.08.2018 15:00:00 20,4 15,6 8 4 31 17 NNW 47 0,0
20.08.2018 14:00:00 18,7 16,1 16 9 31 17 NNW 38 0,0
20.08.2018 13:00:00 21,2 18,2 9 5 18 10 W 37 0,0
20.08.2018 12:00:00 20,2 18,7 8 4 14 8 W 41 0,0
20.08.2018 11:00:00 18,3 18,0 6 4 14 8 W 10 0,4
20.08.2018 10:00:00 17,2 16,9 7 4 12 6 SW 4,2 0,4
20.08.2018 09:00:00 16,7 16,4 5 3 10 5 SSW 2,8 0,4
20.08.2018 08:00:00 16,3 16,0 5 3 10 5 S 3,9 1,2
20.08.2018 07:00:00 16,2 15,9 5 3 11 6 S 3,9 1,2
20.08.2018 06:00:00 16,4 16,1 4 2 9 5 S 8 0,3
20.08.2018 05:00:00 16,4 16,1 5 3 10 6 SSW 11 0,6
20.08.2018 04:00:00 16,5 16,2 6 3 13 7 SSW 9 1,3
20.08.2018 03:00:00 16,7 16,4 7 4 19 10 SSW 13 3,3
20.08.2018 02:00:00 16,7 16,4 9 5 16 9 S 4,1 2,9
20.08.2018 01:00:00 16,4 16,1 6 3 9 5 SSE 10 2,0
20.08.2018 00:00:00 16,4 15,9 3 2 12 6 SSW 12 1,1
19.08.2018 23:00:00 16,6 16,0 6 3 12 7 SW 15 0,7
19.08.2018 22:00:00 16,7 15,9 5 3 9 5 SW 23 0,2
19.08.2018 21:00:00 17,0 15,7 5 3 11 6 SW 34 0,2
19.08.2018 20:00:00 17,5 15,7 5 3 14 7 SW 47 0,2
19.08.2018 19:00:00 18,6 15,5 8 5 18 10 SW 31 0,1
19.08.2018 18:00:00 19,7 15,1 8 4 29 16 WSW 30 0,0
19.08.2018 17:00:00 21,6 12,8 14 8 29 16 WSW 50 0,0
19.08.2018 16:00:00 22,3 12,0 13 7 34 18 W 37 0,0
19.08.2018 15:00:00 21,7 12,5 17 9 31 17 W 46 0,0
19.08.2018 14:00:00 21,4 12,0 13 7 31 17 W 36 0,0
19.08.2018 13:00:00 20,6 12,3 17 9 35 19 W 41 0,0
19.08.2018 12:00:00 20,3 12,3 17 9 34 19 W 33 0,0
19.08.2018 11:00:00 19,8 11,0 15 8 34 19 W 39 0,0
19.08.2018 10:00:00 19,5 12,7 20 11 35 19 WSW 39 0,0
19.08.2018 09:00:00 18,8 13,4 15 8 32 17 W 37 0,0
19.08.2018 08:00:00 17,8 14,3 11 6 22 12 WSW 50 0,0
19.08.2018 07:00:00 17,7 14,2 12 7 23 13 SW 48 0,0
19.08.2018 06:00:00 17,8 13,7 12 6 26 14 SW 48 0,0
19.08.2018 05:00:00 17,8 13,9 12 7 26 14 SW 50 0,0
19.08.2018 04:00:00 17,9 14,0 15 8 26 14 SW 50 0,0
19.08.2018 03:00:00 18,0 13,9 9 5 20 11 SW 43 0,0
19.08.2018 02:00:00 17,8 13,1 10 6 22 12 SSW 50 0,0
19.08.2018 01:00:00 17,7 12,6 10 5 20 11 SW 49 0,0
19.08.2018 00:00:00 17,5 12,4 9 5 23 12 SSW 50 0,0
18.08.2018 23:00:00 17,1 13,0 10 6 23 12 SSW 41 0,4
18.08.2018 22:00:00 18,1 12,5 10 5 31 17 SSW 39 0,0
18.08.2018 21:00:00 18,8 11,6 17 9 29 16 SW 49 0,0
18.08.2018 20:00:00 19,3 10,8 13 7 30 16 SW 50 0,0
18.08.2018 19:00:00 19,8 10,8 10 5 26 14 SW 50 0,0
18.08.2018 18:00:00 21,0 11,3 10 6 26 14 WSW 46 0,0
18.08.2018 17:00:00 19,9 10,3 12 6 32 17 WSW 47 0,0
18.08.2018 16:00:00 20,8 11,2 16 8 31 17 SW 39 0,0
18.08.2018 15:00:00 21,4 9,6 21 11 36 19 WSW 32 0,0
18.08.2018 14:00:00 21,3 10,8 14 8 30 16 SW 45 0,0
18.08.2018 13:00:00 20,1 11,8 9 5 29 15 WSW 41 0,0
18.08.2018 12:00:00 21,5 12,1 11 6 26 14 W 37 0,0
18.08.2018 11:00:00 20,4 12,9 10 5 23 12 W 40 0,0
18.08.2018 10:00:00 19,5 13,2 7 4 14 7 W 36 0,0
18.08.2018 09:00:00 17,8 13,5 5 3 10 5 W 39 0,0
18.08.2018 08:00:00 15,8 14,3 6 4 13 7 W 37 0,0
18.08.2018 07:00:00 12,1 12,1 2 1 9 5 WSW 12 0,0
18.08.2018 06:00:00 11,1 10,9 5 3 8 5 W 8 0,0
18.08.2018 05:00:00 11,6 11,3 5 3 11 6 WSW 12 0,0
18.08.2018 04:00:00 12,5 12,2 7 4 14 8 W 33 0,0
18.08.2018 03:00:00 13,0 12,7 5 3 14 8 W 20 0,0
18.08.2018 02:00:00 13,6 13,4 6 3 11 6 W 20 0,0
18.08.2018 01:00:00 14,0 13,7 2 1 10 6 SSW 22 0,0
18.08.2018 00:00:00 14,4 13,9 2 1 10 5 WSW 12 0,0
17.08.2018 23:00:00 15,4 14,9 4 2 10 5 WSW 18 0,0
17.08.2018 22:00:00 16,3 15,8 4 2 9 5 WSW 23 0,0
17.08.2018 21:00:00 16,7 15,9 3 2 18 10 WNW 14 0,1
17.08.2018 20:00:00 17,8 17,3 4 2 12 7 W 9 0,6
17.08.2018 19:00:00 17,8 17,0 13 7 24 13 W 5 2,8
17.08.2018 18:00:00 21,7 15,1 10 6 21 11 WSW 50 0,0
17.08.2018 17:00:00 20,5 16,1 6 3 30 16 SSE 47 0,0
17.08.2018 16:00:00 25,0 15,0 9 5 31 17 SSE 50 0,5
17.08.2018 15:00:00 26,3 13,4 16 9 36 19 S 23 0,0
17.08.2018 14:00:00 27,2 14,6 15 8 30 16 S 22 0,0
17.08.2018 13:00:00 26,7 14,8 12 7 23 13 S 34 0,0
17.08.2018 12:00:00 26,8 16,1 9 5 24 13 S 40 0,0
17.08.2018 11:00:00 25,9 15,3 11 6 24 13 S 45 0,0
17.08.2018 10:00:00 24,4 15,9 11 6 21 11 S 35 0,0
17.08.2018 09:00:00 22,2 16,5 10 5 19 11 SW 34 0,0
17.08.2018 08:00:00 20,1 16,3 10 5 18 10 S 43 0,0
17.08.2018 07:00:00 18,1 16,1 3 2 11 6 S 41 0,0
17.08.2018 06:00:00 18,2 15,8 4 2 11 6 S 50 0,0
17.08.2018 05:00:00 18,2 15,8 7 4 20 11 S 39 0,0
17.08.2018 04:00:00 18,4 16,2 8 4 14 8 S 24 0,0
17.08.2018 03:00:00 18,2 15,8 6 4 17 9 S 22 0,0
17.08.2018 02:00:00 18,2 15,6 10 5 18 10 S 21 0,0
17.08.2018 01:00:00 17,9 15,5 7 4 13 7 S 33 0,0
17.08.2018 00:00:00 18,1 14,8 6 4 18 10 S 44 0,0
16.08.2018 23:00:00 18,9 14,8 8 5 14 8 S 45 0,0
16.08.2018 22:00:00 19,9 14,9 6 3 15 8 S 19 0,0
16.08.2018 21:00:00 20,8 16,0 7 4 13 7 S 50 0,0
16.08.2018 20:00:00 21,9 16,4 5 3 12 7 SSE 49 0,0
16.08.2018 19:00:00 22,7 16,3 7 4 14 8 SSE 50 0,0
16.08.2018 18:00:00 23,5 16,3 6 4 14 8 S 27 0,0
16.08.2018 17:00:00 23,3 15,9 6 4 17 9 SSE 17 0,0
16.08.2018 16:00:00 23,6 15,4 5 3 24 13 S 25 0,0
16.08.2018 15:00:00 24,6 15,2 9 5 23 12 SSW 39 0,0
16.08.2018 14:00:00 24,6 14,4 15 8 27 15 SW 28 0,0
16.08.2018 13:00:00 24,3 14,4 13 7 26 14 SSW 50 0,0
16.08.2018 12:00:00 23,6 15,6 10 5 22 12 SW 47 0,0
16.08.2018 11:00:00 22,9 15,0 14 8 26 14 S 29 0,0
16.08.2018 10:00:00 21,8 15,6 12 7 23 12 SSW 32 0,0
16.08.2018 09:00:00 19,6 15,3 8 4 16 9 SW 35 0,0
16.08.2018 08:00:00 17,0 15,3 6 3 10 6 SW 38 0,0
16.08.2018 07:00:00 13,4 13,4 4 2 7 4 SW 21 0,0
16.08.2018 06:00:00 11,8 11,8 0 0 5 3 N 9 0,0
16.08.2018 05:00:00 11,6 11,6 2 1 3 1 SW 7 0,0
16.08.2018 04:00:00 12,1 11,9 2 1 8 4 SW 10 0,0
16.08.2018 03:00:00 12,7 12,5 2 1 8 4 WSW 9 0,0
16.08.2018 02:00:00 13,2 13,0 4 2 8 4 WSW 7 0,0
16.08.2018 01:00:00 14,0 13,7 0 0 5 3 N 11 0,0
16.08.2018 00:00:00 14,9 14,6 3 1 6 4 WSW 29 0,0
15.08.2018 23:00:00 14,4 14,1 4 2 5 3 SSW 23 0,0
15.08.2018 22:00:00 14,5 13,4 0 0 6 3 N 50 0,0
15.08.2018 21:00:00 15,9 14,3 3 2 6 3 S 50 0,0
15.08.2018 20:00:00 18,1 14,2 3 2 13 7 SSE 50 0,0
15.08.2018 19:00:00 19,2 14,5 7 4 18 10 S 50 0,0
15.08.2018 18:00:00 22,0 12,5 6 3 17 9 W 38 0,0
15.08.2018 17:00:00 22,4 13,2 4 2 15 8 W 50 0,0
15.08.2018 16:00:00 20,5 13,7 6 3 14 7 NNW 50 0,0
15.08.2018 15:00:00 20,6 14,5 7 4 21 11 N 50 0,0
15.08.2018 14:00:00 20,1 13,8 5 3 16 9 NNW 50 0,0
15.08.2018 13:00:00 19,1 14,8 7 4 23 13 WNW 49 0,0
15.08.2018 12:00:00 18,1 15,2 8 5 15 8 WNW 46 0,0
15.08.2018 11:00:00 17,4 14,9 7 4 14 7 WNW 43 0,0
15.08.2018 10:00:00 16,8 14,6 7 4 18 10 NNW 50 0,0
15.08.2018 09:00:00 15,9 14,8 7 4 14 8 NNW 42 0,0
15.08.2018 08:00:00 15,1 14,5 5 3 14 7 NW 30 0,0
15.08.2018 07:00:00 14,8 14,3 6 4 12 7 NW 29 0,0
15.08.2018 06:00:00 14,6 14,3 5 3 17 9 NW 9 0,0

tt = Température de l'air
td = dewpoint
ff = Vitesse du vent
fx = gusts
dd = Direction du vent
vv = visibility
rr = Quantités de précipitations

stations d'obs. à proximité